LDSB/BWK METAR and TAF weather

Enter ICAO airport designator
Station Type Date Time Source
LDSB METAR 2018/12/11 16:00 UTC NOAA

LDSB 111600Z 30006KT CAVOK 01/M05 Q1016


Station Type Date Time Source
LDSB Decoded METAR 2018/12/11 16:00 UTC NOAA

Brac, Croatia (LDSB) 43-17-09N 016-40-47E
Dec 11, 2018 - 11:00 AM EST / 2018.12.11 1600 UTC
Wind: from the WNW (300 degrees) at 7 MPH (6 KT):0
Visibility: greater than 7 mile(s):0
Temperature: 33 F (1 C)
Windchill: 26 F (-3 C):1
Dew Point: 23 F (-5 C)
Relative Humidity: 64%
Pressure (altimeter): 30.00 in. Hg (1016 hPa)
ob: LDSB 111600Z 30006KT CAVOK 01/M05 Q1016
cycle: 16

Station Type Date Time Source
LDSB TAF 2018/12/11 17:03 UTC NOAA

TAF
AMD TAF
AMD LDSB 111700Z 1117/1212 CNL


Example: see airport list